sensor_id;sensor_type;location;lat;lon;timestamp;temperature;humidity
24232;DHT22;12364;47.810;8.810;2023-12-20T04:47:41;8.50;98.60
24232;DHT22;12364;47.810;8.810;2023-12-20T04:50:09;8.50;98.60
24232;DHT22;12364;47.810;8.810;2023-12-20T04:52:37;8.50;98.70
24232;DHT22;12364;47.810;8.810;2023-12-20T04:55:04;8.50;98.70
24232;DHT22;12364;47.810;8.810;2023-12-20T04:57:31;8.50;98.70
24232;DHT22;12364;47.810;8.810;2023-12-20T04:59:58;8.50;98.80
24232;DHT22;12364;47.810;8.810;2023-12-20T05:02:25;8.50;98.80
24232;DHT22;12364;47.810;8.810;2023-12-20T05:04:52;8.50;98.90
24232;DHT22;12364;47.810;8.810;2023-12-20T05:07:22;8.50;98.90
24232;DHT22;12364;47.810;8.810;2023-12-20T05:09:49;8.50;99.00
24232;DHT22;12364;47.810;8.810;2023-12-20T05:12:16;8.50;98.90
24232;DHT22;12364;47.810;8.810;2023-12-20T05:14:43;8.60;98.90
24232;DHT22;12364;47.810;8.810;2023-12-20T05:17:10;8.60;98.90
24232;DHT22;12364;47.810;8.810;2023-12-20T05:19:37;8.50;98.90
24232;DHT22;12364;47.810;8.810;2023-12-20T05:22:04;8.50;98.90
24232;DHT22;12364;47.810;8.810;2023-12-20T05:24:31;8.50;99.00
24232;DHT22;12364;47.810;8.810;2023-12-20T05:26:58;8.50;99.10
24232;DHT22;12364;47.810;8.810;2023-12-20T05:29:25;8.50;99.10
24232;DHT22;12364;47.810;8.810;2023-12-20T05:31:52;8.60;99.10
24232;DHT22;12364;47.810;8.810;2023-12-20T05:34:19;8.60;99.20
24232;DHT22;12364;47.810;8.810;2023-12-20T05:36:47;8.60;99.20
24232;DHT22;12364;47.810;8.810;2023-12-20T05:39:14;8.60;99.10
24232;DHT22;12364;47.810;8.810;2023-12-20T05:41:41;8.70;99.00
24232;DHT22;12364;47.810;8.810;2023-12-20T05:44:08;8.70;99.10
24232;DHT22;12364;47.810;8.810;2023-12-20T05:46:35;8.70;99.10
24232;DHT22;12364;47.810;8.810;2023-12-20T05:49:03;8.70;99.10
24232;DHT22;12364;47.810;8.810;2023-12-20T05:51:30;8.70;99.10
24232;DHT22;12364;47.810;8.810;2023-12-20T05:53:57;8.70;99.00
24232;DHT22;12364;47.810;8.810;2023-12-20T05:56:25;8.70;99.00
24232;DHT22;12364;47.810;8.810;2023-12-20T05:58:52;8.80;99.10
24232;DHT22;12364;47.810;8.810;2023-12-20T06:01:19;8.70;99.00
24232;DHT22;12364;47.810;8.810;2023-12-20T06:03:46;8.80;99.10
24232;DHT22;12364;47.810;8.810;2023-12-20T06:06:13;8.80;99.10
24232;DHT22;12364;47.810;8.810;2023-12-20T06:08:43;8.80;99.10
24232;DHT22;12364;47.810;8.810;2023-12-20T06:11:10;8.80;99.10
24232;DHT22;12364;47.810;8.810;2023-12-20T06:13:38;8.80;99.00
24232;DHT22;12364;47.810;8.810;2023-12-20T06:16:05;8.80;99.10
24232;DHT22;12364;47.810;8.810;2023-12-20T06:18:33;8.80;99.10
24232;DHT22;12364;47.810;8.810;2023-12-20T06:21:00;8.80;99.00
24232;DHT22;12364;47.810;8.810;2023-12-20T06:23:27;8.80;99.00
24232;DHT22;12364;47.810;8.810;2023-12-20T06:25:54;8.80;99.20
24232;DHT22;12364;47.810;8.810;2023-12-20T06:28:21;8.80;99.10
24232;DHT22;12364;47.810;8.810;2023-12-20T06:30:48;8.80;99.10
24232;DHT22;12364;47.810;8.810;2023-12-20T06:33:16;8.80;99.10
24232;DHT22;12364;47.810;8.810;2023-12-20T06:35:45;8.80;99.10
24232;DHT22;12364;47.810;8.810;2023-12-20T06:38:12;8.80;99.20
24232;DHT22;12364;47.810;8.810;2023-12-20T06:40:39;8.80;99.30
24232;DHT22;12364;47.810;8.810;2023-12-20T06:43:06;8.80;99.40
24232;DHT22;12364;47.810;8.810;2023-12-20T06:45:46;8.80;99.30
24232;DHT22;12364;47.810;8.810;2023-12-20T06:48:13;8.80;99.20
24232;DHT22;12364;47.810;8.810;2023-12-20T06:50:40;8.80;99.30
24232;DHT22;12364;47.810;8.810;2023-12-20T06:53:08;8.80;99.30
24232;DHT22;12364;47.810;8.810;2023-12-20T06:55:35;8.80;99.20
24232;DHT22;12364;47.810;8.810;2023-12-20T06:58:02;8.90;99.30
24232;DHT22;12364;47.810;8.810;2023-12-20T07:00:30;8.90;99.40
24232;DHT22;12364;47.810;8.810;2023-12-20T07:02:57;8.90;99.40
24232;DHT22;12364;47.810;8.810;2023-12-20T07:05:24;8.90;99.50
24232;DHT22;12364;47.810;8.810;2023-12-20T07:07:51;9.00;99.50
24232;DHT22;12364;47.810;8.810;2023-12-20T07:10:18;9.00;99.50
24232;DHT22;12364;47.810;8.810;2023-12-20T07:12:45;9.00;99.40
24232;DHT22;12364;47.810;8.810;2023-12-20T07:15:12;9.00;99.50
24232;DHT22;12364;47.810;8.810;2023-12-20T07:17:39;9.00;99.50
24232;DHT22;12364;47.810;8.810;2023-12-20T07:20:07;9.00;99.60
24232;DHT22;12364;47.810;8.810;2023-12-20T07:22:37;9.00;99.40
24232;DHT22;12364;47.810;8.810;2023-12-20T07:25:04;9.00;99.50
24232;DHT22;12364;47.810;8.810;2023-12-20T07:27:31;9.10;99.50
24232;DHT22;12364;47.810;8.810;2023-12-20T07:29:58;9.10;99.50
24232;DHT22;12364;47.810;8.810;2023-12-20T07:32:26;9.10;99.50
24232;DHT22;12364;47.810;8.810;2023-12-20T07:34:53;9.10;99.50
24232;DHT22;12364;47.810;8.810;2023-12-20T07:37:20;9.10;99.60
24232;DHT22;12364;47.810;8.810;2023-12-20T07:39:48;9.10;99.60
24232;DHT22;12364;47.810;8.810;2023-12-20T07:42:15;9.10;99.60
24232;DHT22;12364;47.810;8.810;2023-12-20T07:44:42;9.10;99.60
24232;DHT22;12364;47.810;8.810;2023-12-20T07:47:09;9.10;99.60
24232;DHT22;12364;47.810;8.810;2023-12-20T07:49:36;9.20;99.70
24232;DHT22;12364;47.810;8.810;2023-12-20T07:52:03;9.20;99.70
24232;DHT22;12364;47.810;8.810;2023-12-20T07:54:30;9.20;99.70
24232;DHT22;12364;47.810;8.810;2023-12-20T07:56:57;9.10;99.70
24232;DHT22;12364;47.810;8.810;2023-12-20T07:59:24;9.10;99.90
24232;DHT22;12364;47.810;8.810;2023-12-20T08:01:58;9.10;99.90
24232;DHT22;12364;47.810;8.810;2023-12-20T08:04:26;9.10;99.80
24232;DHT22;12364;47.810;8.810;2023-12-20T08:06:54;9.10;99.90
24232;DHT22;12364;47.810;8.810;2023-12-20T08:09:21;9.10;99.90
24232;DHT22;12364;47.810;8.810;2023-12-20T08:11:48;9.10;99.90
24232;DHT22;12364;47.810;8.810;2023-12-20T08:14:15;9.10;99.90
24232;DHT22;12364;47.810;8.810;2023-12-20T08:16:42;9.10;99.90
24232;DHT22;12364;47.810;8.810;2023-12-20T08:19:09;9.20;99.90
24232;DHT22;12364;47.810;8.810;2023-12-20T08:21:37;9.20;99.90
24232;DHT22;12364;47.810;8.810;2023-12-20T08:24:05;9.30;99.80
24232;DHT22;12364;47.810;8.810;2023-12-20T08:26:32;9.30;99.60
24232;DHT22;12364;47.810;8.810;2023-12-20T08:28:59;9.30;99.80
24232;DHT22;12364;47.810;8.810;2023-12-20T08:31:28;9.30;99.80
24232;DHT22;12364;47.810;8.810;2023-12-20T08:33:56;9.40;99.70
24232;DHT22;12364;47.810;8.810;2023-12-20T08:36:23;9.40;99.70
24232;DHT22;12364;47.810;8.810;2023-12-20T08:38:51;9.40;99.60
24232;DHT22;12364;47.810;8.810;2023-12-20T08:41:18;9.40;99.70
24232;DHT22;12364;47.810;8.810;2023-12-20T08:43:45;9.40;99.80
24232;DHT22;12364;47.810;8.810;2023-12-20T08:46:13;9.50;99.80
24232;DHT22;12364;47.810;8.810;2023-12-20T08:48:40;9.50;99.70
24232;DHT22;12364;47.810;8.810;2023-12-20T08:51:07;9.40;99.80
24232;DHT22;12364;47.810;8.810;2023-12-20T08:53:36;9.50;99.80
24232;DHT22;12364;47.810;8.810;2023-12-20T08:56:03;9.50;99.90
24232;DHT22;12364;47.810;8.810;2023-12-20T08:58:30;9.50;99.90
24232;DHT22;12364;47.810;8.810;2023-12-20T09:00:57;9.50;99.90
24232;DHT22;12364;47.810;8.810;2023-12-20T09:03:25;9.50;99.90
24232;DHT22;12364;47.810;8.810;2023-12-20T09:05:52;9.60;99.90
24232;DHT22;12364;47.810;8.810;2023-12-20T09:08:19;9.60;99.90
24232;DHT22;12364;47.810;8.810;2023-12-20T09:10:46;9.70;99.90
24232;DHT22;12364;47.810;8.810;2023-12-20T09:13:13;9.70;99.90
24232;DHT22;12364;47.810;8.810;2023-12-20T09:15:40;9.70;99.90
24232;DHT22;12364;47.810;8.810;2023-12-20T09:18:07;9.80;99.90
24232;DHT22;12364;47.810;8.810;2023-12-20T09:20:34;9.80;99.90
24232;DHT22;12364;47.810;8.810;2023-12-20T09:23:02;9.80;99.90
24232;DHT22;12364;47.810;8.810;2023-12-20T09:25:29;9.80;99.90
24232;DHT22;12364;47.810;8.810;2023-12-20T09:27:57;9.90;99.90
24232;DHT22;12364;47.810;8.810;2023-12-20T09:30:24;9.80;99.90
24232;DHT22;12364;47.810;8.810;2023-12-20T09:32:54;9.80;99.90
24232;DHT22;12364;47.810;8.810;2023-12-20T09:35:21;9.80;99.90
24232;DHT22;12364;47.810;8.810;2023-12-20T09:37:49;9.90;99.90
24232;DHT22;12364;47.810;8.810;2023-12-20T09:40:19;9.90;99.90
24232;DHT22;12364;47.810;8.810;2023-12-20T09:42:57;9.90;99.80
24232;DHT22;12364;47.810;8.810;2023-12-20T09:45:24;10.00;99.40
24232;DHT22;12364;47.810;8.810;2023-12-20T09:47:52;10.00;99.30
24232;DHT22;12364;47.810;8.810;2023-12-20T09:50:20;10.10;99.20
24232;DHT22;12364;47.810;8.810;2023-12-20T09:52:51;10.00;99.20
24232;DHT22;12364;47.810;8.810;2023-12-20T09:55:19;10.00;99.30
24232;DHT22;12364;47.810;8.810;2023-12-20T09:57:47;10.10;99.30
24232;DHT22;12364;47.810;8.810;2023-12-20T10:00:15;10.10;99.20
24232;DHT22;12364;47.810;8.810;2023-12-20T10:02:48;10.10;99.10
24232;DHT22;12364;47.810;8.810;2023-12-20T10:05:17;10.10;99.00
24232;DHT22;12364;47.810;8.810;2023-12-20T10:07:46;10.10;99.00
24232;DHT22;12364;47.810;8.810;2023-12-20T10:10:14;10.10;99.00
24232;DHT22;12364;47.810;8.810;2023-12-20T10:13:00;10.20;98.90
24232;DHT22;12364;47.810;8.810;2023-12-20T10:15:27;10.20;98.80
24232;DHT22;12364;47.810;8.810;2023-12-20T10:17:54;10.20;98.60
24232;DHT22;12364;47.810;8.810;2023-12-20T10:20:27;10.20;98.50
24232;DHT22;12364;47.810;8.810;2023-12-20T10:22:57;10.20;98.60
24232;DHT22;12364;47.810;8.810;2023-12-20T10:25:24;10.20;98.70
24232;DHT22;12364;47.810;8.810;2023-12-20T10:28:08;10.20;98.70
24232;DHT22;12364;47.810;8.810;2023-12-20T10:30:35;10.20;98.40
24232;DHT22;12364;47.810;8.810;2023-12-20T10:33:02;10.20;98.50
24232;DHT22;12364;47.810;8.810;2023-12-20T10:35:29;10.20;98.50
24232;DHT22;12364;47.810;8.810;2023-12-20T10:37:57;10.20;98.30
24232;DHT22;12364;47.810;8.810;2023-12-20T10:40:25;10.30;98.30
24232;DHT22;12364;47.810;8.810;2023-12-20T10:42:54;10.30;98.30
24232;DHT22;12364;47.810;8.810;2023-12-20T10:45:21;10.30;98.40
24232;DHT22;12364;47.810;8.810;2023-12-20T10:47:48;10.30;98.40
24232;DHT22;12364;47.810;8.810;2023-12-20T10:50:16;10.30;97.80
24232;DHT22;12364;47.810;8.810;2023-12-20T10:52:43;10.30;97.80
24232;DHT22;12364;47.810;8.810;2023-12-20T10:55:11;10.20;97.90
24232;DHT22;12364;47.810;8.810;2023-12-20T10:57:38;10.20;97.90
24232;DHT22;12364;47.810;8.810;2023-12-20T11:00:05;10.20;97.80
24232;DHT22;12364;47.810;8.810;2023-12-20T11:02:39;10.20;97.60
24232;DHT22;12364;47.810;8.810;2023-12-20T11:07:53;10.20;97.50
24232;DHT22;12364;47.810;8.810;2023-12-20T11:10:29;10.20;97.30
24232;DHT22;12364;47.810;8.810;2023-12-20T11:13:06;10.20;97.50
24232;DHT22;12364;47.810;8.810;2023-12-20T11:15:39;10.20;97.10
24232;DHT22;12364;47.810;8.810;2023-12-20T11:18:06;10.10;96.90
24232;DHT22;12364;47.810;8.810;2023-12-20T11:20:39;10.00;97.30
24232;DHT22;12364;47.810;8.810;2023-12-20T11:23:07;10.00;97.60
24232;DHT22;12364;47.810;8.810;2023-12-20T11:25:53;10.00;97.70
24232;DHT22;12364;47.810;8.810;2023-12-20T11:28:21;10.00;97.60
24232;DHT22;12364;47.810;8.810;2023-12-20T11:30:49;10.00;97.70
24232;DHT22;12364;47.810;8.810;2023-12-20T11:33:17;10.00;97.70
24232;DHT22;12364;47.810;8.810;2023-12-20T11:35:48;9.90;98.00
24232;DHT22;12364;47.810;8.810;2023-12-20T11:38:15;9.90;98.00
24232;DHT22;12364;47.810;8.810;2023-12-20T11:40:42;9.90;97.90
24232;DHT22;12364;47.810;8.810;2023-12-20T11:43:10;9.80;97.90
24232;DHT22;12364;47.810;8.810;2023-12-20T11:45:37;9.80;98.00
24232;DHT22;12364;47.810;8.810;2023-12-20T11:48:04;9.90;97.90
24232;DHT22;12364;47.810;8.810;2023-12-20T11:50:33;9.90;97.80
24232;DHT22;12364;47.810;8.810;2023-12-20T11:53:00;9.90;97.90
24232;DHT22;12364;47.810;8.810;2023-12-20T11:55:27;9.90;97.80
24232;DHT22;12364;47.810;8.810;2023-12-20T11:57:54;9.90;98.00
24232;DHT22;12364;47.810;8.810;2023-12-20T12:00:21;9.90;98.10
24232;DHT22;12364;47.810;8.810;2023-12-20T12:02:55;9.90;97.90
24232;DHT22;12364;47.810;8.810;2023-12-20T12:05:22;10.00;97.70
24232;DHT22;12364;47.810;8.810;2023-12-20T12:07:49;9.90;97.70
24232;DHT22;12364;47.810;8.810;2023-12-20T12:10:16;9.90;97.90
24232;DHT22;12364;47.810;8.810;2023-12-20T12:12:43;10.00;97.40
24232;DHT22;12364;47.810;8.810;2023-12-20T12:15:11;10.00;97.30
24232;DHT22;12364;47.810;8.810;2023-12-20T12:17:38;10.00;96.90
24232;DHT22;12364;47.810;8.810;2023-12-20T12:20:05;9.90;96.70
24232;DHT22;12364;47.810;8.810;2023-12-20T12:22:33;9.90;96.90
24232;DHT22;12364;47.810;8.810;2023-12-20T12:25:09;9.90;96.70
24232;DHT22;12364;47.810;8.810;2023-12-20T12:27:36;9.80;96.60
24232;DHT22;12364;47.810;8.810;2023-12-20T12:30:05;9.80;96.90
24232;DHT22;12364;47.810;8.810;2023-12-20T12:32:34;9.80;96.60
24232;DHT22;12364;47.810;8.810;2023-12-20T12:35:03;9.90;96.70
24232;DHT22;12364;47.810;8.810;2023-12-20T12:37:30;9.80;96.90
24232;DHT22;12364;47.810;8.810;2023-12-20T12:39:57;9.80;96.60
24232;DHT22;12364;47.810;8.810;2023-12-20T12:42:24;9.70;96.50
24232;DHT22;12364;47.810;8.810;2023-12-20T12:44:55;9.70;96.20
24232;DHT22;12364;47.810;8.810;2023-12-20T12:47:23;9.70;96.20
24232;DHT22;12364;47.810;8.810;2023-12-20T12:49:50;9.50;95.80
24232;DHT22;12364;47.810;8.810;2023-12-20T12:52:18;9.50;96.20
24232;DHT22;12364;47.810;8.810;2023-12-20T12:54:45;9.70;96.10
24232;DHT22;12364;47.810;8.810;2023-12-20T12:57:14;9.50;95.80
24232;DHT22;12364;47.810;8.810;2023-12-20T12:59:42;9.50;96.10
24232;DHT22;12364;47.810;8.810;2023-12-20T13:02:09;9.50;95.50
24232;DHT22;12364;47.810;8.810;2023-12-20T13:04:36;9.30;94.40
24232;DHT22;12364;47.810;8.810;2023-12-20T13:07:04;9.10;93.80
24232;DHT22;12364;47.810;8.810;2023-12-20T13:09:31;8.90;93.60
24232;DHT22;12364;47.810;8.810;2023-12-20T13:11:58;8.90;93.80
24232;DHT22;12364;47.810;8.810;2023-12-20T13:14:26;8.90;93.60
24232;DHT22;12364;47.810;8.810;2023-12-20T13:16:53;8.80;93.60
24232;DHT22;12364;47.810;8.810;2023-12-20T13:19:19;8.70;93.50
24232;DHT22;12364;47.810;8.810;2023-12-20T13:21:48;8.70;93.50
24232;DHT22;12364;47.810;8.810;2023-12-20T13:24:15;8.70;93.30
24232;DHT22;12364;47.810;8.810;2023-12-20T13:26:42;8.70;92.80
24232;DHT22;12364;47.810;8.810;2023-12-20T13:29:09;8.60;92.40
24232;DHT22;12364;47.810;8.810;2023-12-20T13:31:36;8.50;92.20
24232;DHT22;12364;47.810;8.810;2023-12-20T13:34:04;8.40;91.40
24232;DHT22;12364;47.810;8.810;2023-12-20T13:36:32;8.40;92.20
24232;DHT22;12364;47.810;8.810;2023-12-20T13:38:59;8.30;91.20
24232;DHT22;12364;47.810;8.810;2023-12-20T13:41:26;8.10;91.00
24232;DHT22;12364;47.810;8.810;2023-12-20T13:43:53;8.10;91.30
24232;DHT22;12364;47.810;8.810;2023-12-20T13:46:21;8.10;91.00
24232;DHT22;12364;47.810;8.810;2023-12-20T13:48:48;8.20;91.20
24232;DHT22;12364;47.810;8.810;2023-12-20T13:51:15;8.30;91.10
24232;DHT22;12364;47.810;8.810;2023-12-20T13:53:42;8.30;91.60
24232;DHT22;12364;47.810;8.810;2023-12-20T13:56:09;8.30;91.20
24232;DHT22;12364;47.810;8.810;2023-12-20T13:58:36;8.30;91.00
24232;DHT22;12364;47.810;8.810;2023-12-20T14:01:04;8.20;90.80
24232;DHT22;12364;47.810;8.810;2023-12-20T14:03:31;8.10;91.00
24232;DHT22;12364;47.810;8.810;2023-12-20T14:05:58;8.20;91.30
24232;DHT22;12364;47.810;8.810;2023-12-20T14:08:25;8.20;91.40
24232;DHT22;12364;47.810;8.810;2023-12-20T14:10:53;8.20;91.70
24232;DHT22;12364;47.810;8.810;2023-12-20T14:13:20;8.30;91.40
24232;DHT22;12364;47.810;8.810;2023-12-20T14:15:48;8.20;91.60
24232;DHT22;12364;47.810;8.810;2023-12-20T14:18:16;8.20;91.60
24232;DHT22;12364;47.810;8.810;2023-12-20T14:20:43;8.10;91.40
24232;DHT22;12364;47.810;8.810;2023-12-20T14:23:11;8.00;91.10
24232;DHT22;12364;47.810;8.810;2023-12-20T14:25:38;7.90;91.00
24232;DHT22;12364;47.810;8.810;2023-12-20T14:28:17;7.90;90.90
24232;DHT22;12364;47.810;8.810;2023-12-20T14:30:45;8.00;91.20
24232;DHT22;12364;47.810;8.810;2023-12-20T14:33:12;8.00;91.10
24232;DHT22;12364;47.810;8.810;2023-12-20T14:35:39;8.10;91.40
24232;DHT22;12364;47.810;8.810;2023-12-20T14:38:10;8.20;91.30
24232;DHT22;12364;47.810;8.810;2023-12-20T14:40:40;8.10;90.50
24232;DHT22;12364;47.810;8.810;2023-12-20T14:43:07;8.20;90.40
24232;DHT22;12364;47.810;8.810;2023-12-20T14:45:34;8.10;90.90
24232;DHT22;12364;47.810;8.810;2023-12-20T14:48:01;8.20;90.90
24232;DHT22;12364;47.810;8.810;2023-12-20T14:50:29;8.40;91.20
24232;DHT22;12364;47.810;8.810;2023-12-20T14:52:55;8.30;91.30
24232;DHT22;12364;47.810;8.810;2023-12-20T14:55:23;8.30;91.10
24232;DHT22;12364;47.810;8.810;2023-12-20T14:57:50;8.40;90.90
24232;DHT22;12364;47.810;8.810;2023-12-20T15:00:17;8.30;91.10
24232;DHT22;12364;47.810;8.810;2023-12-20T15:02:46;8.30;91.00
24232;DHT22;12364;47.810;8.810;2023-12-20T15:05:13;8.30;91.20
24232;DHT22;12364;47.810;8.810;2023-12-20T15:07:41;8.30;91.30
24232;DHT22;12364;47.810;8.810;2023-12-20T15:10:08;8.40;91.10
24232;DHT22;12364;47.810;8.810;2023-12-20T15:12:35;8.50;91.20
24232;DHT22;12364;47.810;8.810;2023-12-20T15:15:02;8.50;91.10
24232;DHT22;12364;47.810;8.810;2023-12-20T15:17:31;8.50;91.10
24232;DHT22;12364;47.810;8.810;2023-12-20T15:19:58;8.60;91.00
24232;DHT22;12364;47.810;8.810;2023-12-20T15:22:25;8.60;91.30
24232;DHT22;12364;47.810;8.810;2023-12-20T15:24:53;8.70;91.20
24232;DHT22;12364;47.810;8.810;2023-12-20T15:27:22;8.70;91.20
24232;DHT22;12364;47.810;8.810;2023-12-20T15:29:51;8.70;91.40
24232;DHT22;12364;47.810;8.810;2023-12-20T15:32:18;8.70;92.20
24232;DHT22;12364;47.810;8.810;2023-12-20T15:34:45;8.80;92.80
24232;DHT22;12364;47.810;8.810;2023-12-20T15:37:13;8.80;93.10
24232;DHT22;12364;47.810;8.810;2023-12-20T15:39:41;8.80;93.30
24232;DHT22;12364;47.810;8.810;2023-12-20T15:42:08;8.70;93.40
24232;DHT22;12364;47.810;8.810;2023-12-20T15:44:35;8.70;93.60
24232;DHT22;12364;47.810;8.810;2023-12-20T15:47:02;8.60;93.50
24232;DHT22;12364;47.810;8.810;2023-12-20T15:49:29;8.60;93.70
24232;DHT22;12364;47.810;8.810;2023-12-20T15:51:56;8.50;93.90
24232;DHT22;12364;47.810;8.810;2023-12-20T15:54:23;8.50;93.80
24232;DHT22;12364;47.810;8.810;2023-12-20T15:56:50;8.50;93.80
24232;DHT22;12364;47.810;8.810;2023-12-20T15:59:18;8.50;93.60
24232;DHT22;12364;47.810;8.810;2023-12-20T16:01:45;8.40;93.60
24232;DHT22;12364;47.810;8.810;2023-12-20T16:04:20;8.40;93.80
24232;DHT22;12364;47.810;8.810;2023-12-20T16:06:47;8.40;93.70
24232;DHT22;12364;47.810;8.810;2023-12-20T16:09:15;8.50;93.70
24232;DHT22;12364;47.810;8.810;2023-12-20T16:11:42;8.30;93.60
24232;DHT22;12364;47.810;8.810;2023-12-20T16:14:11;8.30;93.70
24232;DHT22;12364;47.810;8.810;2023-12-20T16:16:43;8.40;93.60
24232;DHT22;12364;47.810;8.810;2023-12-20T16:19:10;8.20;93.60
24232;DHT22;12364;47.810;8.810;2023-12-20T16:21:37;8.20;93.40
24232;DHT22;12364;47.810;8.810;2023-12-20T16:24:04;8.20;93.20
24232;DHT22;12364;47.810;8.810;2023-12-20T16:26:32;8.20;93.20
24232;DHT22;12364;47.810;8.810;2023-12-20T16:28:59;8.30;93.50
24232;DHT22;12364;47.810;8.810;2023-12-20T16:31:26;8.30;93.40
24232;DHT22;12364;47.810;8.810;2023-12-20T16:33:53;8.60;93.40
24232;DHT22;12364;47.810;8.810;2023-12-20T16:36:21;8.40;93.20
24232;DHT22;12364;47.810;8.810;2023-12-20T16:38:48;8.30;93.10
24232;DHT22;12364;47.810;8.810;2023-12-20T16:41:15;8.30;92.90
24232;DHT22;12364;47.810;8.810;2023-12-20T16:43:42;8.30;92.90
24232;DHT22;12364;47.810;8.810;2023-12-20T16:46:09;8.30;92.90
24232;DHT22;12364;47.810;8.810;2023-12-20T16:48:36;8.30;92.80
24232;DHT22;12364;47.810;8.810;2023-12-20T16:51:04;8.20;92.60
24232;DHT22;12364;47.810;8.810;2023-12-20T16:53:31;8.20;92.60
24232;DHT22;12364;47.810;8.810;2023-12-20T16:55:57;8.00;92.60
24232;DHT22;12364;47.810;8.810;2023-12-20T17:01:02;7.90;92.70
24232;DHT22;12364;47.810;8.810;2023-12-20T17:03:29;7.90;92.90
24232;DHT22;12364;47.810;8.810;2023-12-20T17:05:56;8.00;93.00
24232;DHT22;12364;47.810;8.810;2023-12-20T17:08:23;7.90;92.70
24232;DHT22;12364;47.810;8.810;2023-12-20T17:10:50;7.90;92.80
24232;DHT22;12364;47.810;8.810;2023-12-20T17:13:17;7.90;92.60
24232;DHT22;12364;47.810;8.810;2023-12-20T17:15:44;7.80;92.70
24232;DHT22;12364;47.810;8.810;2023-12-20T17:18:11;7.70;92.80
24232;DHT22;12364;47.810;8.810;2023-12-20T17:20:38;7.70;92.90
24232;DHT22;12364;47.810;8.810;2023-12-20T17:23:05;7.70;92.90
24232;DHT22;12364;47.810;8.810;2023-12-20T17:25:32;7.80;92.80
24232;DHT22;12364;47.810;8.810;2023-12-20T17:28:05;7.80;92.90
24232;DHT22;12364;47.810;8.810;2023-12-20T17:30:32;7.80;92.70
24232;DHT22;12364;47.810;8.810;2023-12-20T17:33:01;7.70;92.60
24232;DHT22;12364;47.810;8.810;2023-12-20T17:35:28;7.70;92.80
24232;DHT22;12364;47.810;8.810;2023-12-20T17:37:55;7.70;92.70
24232;DHT22;12364;47.810;8.810;2023-12-20T17:40:22;7.80;92.40
24232;DHT22;12364;47.810;8.810;2023-12-20T17:42:49;7.70;92.50
24232;DHT22;12364;47.810;8.810;2023-12-20T17:45:16;7.80;92.70
24232;DHT22;12364;47.810;8.810;2023-12-20T17:47:43;7.80;92.60
24232;DHT22;12364;47.810;8.810;2023-12-20T17:50:11;7.90;92.70
24232;DHT22;12364;47.810;8.810;2023-12-20T17:52:38;8.00;92.70
24232;DHT22;12364;47.810;8.810;2023-12-20T17:55:05;8.00;92.80
24232;DHT22;12364;47.810;8.810;2023-12-20T17:57:33;8.00;92.40
24232;DHT22;12364;47.810;8.810;2023-12-20T18:00:16;8.00;92.40
24232;DHT22;12364;47.810;8.810;2023-12-20T18:02:44;8.00;92.30
24232;DHT22;12364;47.810;8.810;2023-12-20T18:05:11;8.00;92.50
24232;DHT22;12364;47.810;8.810;2023-12-20T18:07:38;8.10;92.70
24232;DHT22;12364;47.810;8.810;2023-12-20T18:10:06;8.10;92.40
24232;DHT22;12364;47.810;8.810;2023-12-20T18:12:33;8.10;92.40
24232;DHT22;12364;47.810;8.810;2023-12-20T18:15:00;8.10;92.80
24232;DHT22;12364;47.810;8.810;2023-12-20T18:17:27;8.10;92.60
24232;DHT22;12364;47.810;8.810;2023-12-20T18:19:54;8.10;92.60
24232;DHT22;12364;47.810;8.810;2023-12-20T18:22:21;8.10;92.80
24232;DHT22;12364;47.810;8.810;2023-12-20T18:24:48;8.10;92.40
24232;DHT22;12364;47.810;8.810;2023-12-20T18:27:17;8.10;92.60
24232;DHT22;12364;47.810;8.810;2023-12-20T18:29:43;8.10;92.50
24232;DHT22;12364;47.810;8.810;2023-12-20T18:32:10;8.10;92.80
24232;DHT22;12364;47.810;8.810;2023-12-20T18:34:37;8.00;92.80
24232;DHT22;12364;47.810;8.810;2023-12-20T18:37:05;8.10;93.00
24232;DHT22;12364;47.810;8.810;2023-12-20T18:39:37;8.10;92.60
24232;DHT22;12364;47.810;8.810;2023-12-20T18:42:07;8.10;92.80
24232;DHT22;12364;47.810;8.810;2023-12-20T18:44:34;8.00;92.90
24232;DHT22;12364;47.810;8.810;2023-12-20T18:47:02;8.00;92.70
24232;DHT22;12364;47.810;8.810;2023-12-20T18:49:29;8.10;92.70
24232;DHT22;12364;47.810;8.810;2023-12-20T18:51:56;8.00;92.80
24232;DHT22;12364;47.810;8.810;2023-12-20T18:54:24;8.00;93.00
24232;DHT22;12364;47.810;8.810;2023-12-20T18:56:51;8.00;93.10
24232;DHT22;12364;47.810;8.810;2023-12-20T18:59:19;8.00;92.90
24232;DHT22;12364;47.810;8.810;2023-12-20T19:01:48;8.10;92.90
24232;DHT22;12364;47.810;8.810;2023-12-20T19:04:15;8.00;92.80
24232;DHT22;12364;47.810;8.810;2023-12-20T19:06:42;8.00;92.90
24232;DHT22;12364;47.810;8.810;2023-12-20T19:09:09;8.00;92.60
24232;DHT22;12364;47.810;8.810;2023-12-20T19:11:36;8.00;93.10
24232;DHT22;12364;47.810;8.810;2023-12-20T19:14:03;8.00;93.00
24232;DHT22;12364;47.810;8.810;2023-12-20T19:16:31;8.00;93.10
24232;DHT22;12364;47.810;8.810;2023-12-20T19:18:59;8.00;92.80
24232;DHT22;12364;47.810;8.810;2023-12-20T19:21:26;8.10;93.00
24232;DHT22;12364;47.810;8.810;2023-12-20T19:23:53;8.10;93.00
24232;DHT22;12364;47.810;8.810;2023-12-20T19:26:20;8.10;92.80
24232;DHT22;12364;47.810;8.810;2023-12-20T19:28:47;8.00;92.80
24232;DHT22;12364;47.810;8.810;2023-12-20T19:31:14;8.00;93.00
24232;DHT22;12364;47.810;8.810;2023-12-20T19:33:41;8.10;93.00
24232;DHT22;12364;47.810;8.810;2023-12-20T19:36:09;8.10;92.90
24232;DHT22;12364;47.810;8.810;2023-12-20T19:38:40;8.10;92.70
24232;DHT22;12364;47.810;8.810;2023-12-20T19:41:07;8.10;92.90
24232;DHT22;12364;47.810;8.810;2023-12-20T19:43:34;8.10;93.10
24232;DHT22;12364;47.810;8.810;2023-12-20T19:46:01;8.20;93.00
24232;DHT22;12364;47.810;8.810;2023-12-20T19:48:29;8.20;92.90
24232;DHT22;12364;47.810;8.810;2023-12-20T19:50:56;8.20;93.10
24232;DHT22;12364;47.810;8.810;2023-12-20T19:53:23;8.30;93.30
24232;DHT22;12364;47.810;8.810;2023-12-20T19:55:52;8.20;92.80
24232;DHT22;12364;47.810;8.810;2023-12-20T19:58:19;8.10;92.70
24232;DHT22;12364;47.810;8.810;2023-12-20T20:00:46;8.00;92.80
24232;DHT22;12364;47.810;8.810;2023-12-20T20:03:21;8.00;93.00
24232;DHT22;12364;47.810;8.810;2023-12-20T20:05:49;8.00;93.00
24232;DHT22;12364;47.810;8.810;2023-12-20T20:08:17;8.00;92.80
24232;DHT22;12364;47.810;8.810;2023-12-20T20:10:44;8.00;93.00
24232;DHT22;12364;47.810;8.810;2023-12-20T20:13:11;8.00;93.00
24232;DHT22;12364;47.810;8.810;2023-12-20T20:15:38;8.00;92.90
24232;DHT22;12364;47.810;8.810;2023-12-20T20:18:05;7.80;92.90
24232;DHT22;12364;47.810;8.810;2023-12-20T20:20:33;7.80;92.90
24232;DHT22;12364;47.810;8.810;2023-12-20T20:23:01;7.80;92.80
24232;DHT22;12364;47.810;8.810;2023-12-20T20:25:28;7.80;92.90
24232;DHT22;12364;47.810;8.810;2023-12-20T20:27:55;7.80;92.80
24232;DHT22;12364;47.810;8.810;2023-12-20T20:30:22;7.80;92.60
24232;DHT22;12364;47.810;8.810;2023-12-20T20:32:49;7.60;92.70
24232;DHT22;12364;47.810;8.810;2023-12-20T20:35:18;7.60;92.70
24232;DHT22;12364;47.810;8.810;2023-12-20T20:37:48;7.50;92.80
24232;DHT22;12364;47.810;8.810;2023-12-20T20:40:16;7.50;92.60